createdAt,value
2023-04-12T00:01:38.663Z,99642.69
2023-04-12T00:04:42.173Z,99630.16
2023-04-12T00:07:47.839Z,99637.09
2023-04-12T00:10:52.189Z,99629.00
2023-04-12T00:13:55.340Z,99622.16
2023-04-12T00:16:58.520Z,99631.62
2023-04-12T00:20:01.171Z,99639.41
2023-04-12T00:23:04.849Z,99638.53
2023-04-12T00:26:08.086Z,99648.44
2023-04-12T00:29:12.122Z,99632.12
2023-04-12T00:32:14.512Z,99642.81
2023-04-12T00:35:17.917Z,99645.31
2023-04-12T00:38:21.051Z,99640.50
2023-04-12T00:41:25.010Z,99658.87
2023-04-12T00:44:28.308Z,99645.09
2023-04-12T00:47:31.621Z,99652.88
2023-04-12T00:50:36.348Z,99643.63
2023-04-12T00:53:42.345Z,99649.34
2023-04-12T00:56:46.120Z,99635.84
2023-04-12T00:59:49.306Z,99647.25
2023-04-12T01:02:53.695Z,99634.59
2023-04-12T01:06:00.420Z,99637.47
2023-04-12T01:09:06.614Z,99646.22
2023-04-12T01:12:18.689Z,99649.09
2023-04-12T01:15:24.881Z,99644.91
2023-04-12T01:18:31.313Z,99643.97
2023-04-12T01:21:57.600Z,99634.00
2023-04-12T01:25:12.608Z,99641.56
2023-04-12T01:28:16.473Z,99633.19
2023-04-12T01:31:20.111Z,99622.56
2023-04-12T01:34:24.195Z,99629.00
2023-04-12T01:37:27.559Z,99635.41
2023-04-12T01:40:32.186Z,99626.81
2023-04-12T01:43:34.806Z,99630.34
2023-04-12T01:46:38.178Z,99639.44
2023-04-12T01:49:50.517Z,99642.09
2023-04-12T01:53:19.228Z,99634.25
2023-04-12T01:56:23.229Z,99633.81
2023-04-12T01:59:42.619Z,99630.59
2023-04-12T02:02:45.525Z,99626.22
2023-04-12T02:05:48.551Z,99620.22
2023-04-12T02:08:57.905Z,99626.87
2023-04-12T02:12:01.620Z,99611.13
2023-04-12T02:15:04.964Z,99595.59
2023-04-12T02:18:07.975Z,99594.44
2023-04-12T02:21:11.315Z,99581.28
2023-04-12T02:24:14.532Z,99581.44
2023-04-12T02:27:19.553Z,99583.81
2023-04-12T02:30:23.163Z,99593.28
2023-04-12T02:33:25.885Z,99589.13
2023-04-12T02:36:29.211Z,99596.59
2023-04-12T02:39:32.851Z,99601.66
2023-04-12T02:42:35.708Z,99593.53
2023-04-12T02:45:39.688Z,99610.13
2023-04-12T02:48:44.758Z,99624.28
2023-04-12T02:51:47.837Z,99624.97
2023-04-12T02:54:51.882Z,99627.63
2023-04-12T02:57:55.985Z,99649.87
2023-04-12T03:01:00.738Z,99644.97
2023-04-12T03:04:04.490Z,99641.00
2023-04-12T03:07:07.550Z,99631.47
2023-04-12T03:10:12.457Z,99629.72
2023-04-12T03:13:15.270Z,99626.91
2023-04-12T03:16:23.733Z,99626.84
2023-04-12T03:19:26.778Z,99630.78
2023-04-12T03:22:30.255Z,99632.44
2023-04-12T03:25:33.656Z,99634.13
2023-04-12T03:28:37.259Z,99628.75
2023-04-12T03:31:40.434Z,99619.94
2023-04-12T03:34:43.594Z,99618.56
2023-04-12T03:37:46.849Z,99625.69
2023-04-12T03:40:50.349Z,99627.25
2023-04-12T03:43:53.850Z,99618.66
2023-04-12T03:46:57.571Z,99626.09
2023-04-12T03:50:11.971Z,99624.06
2023-04-12T03:53:15.847Z,99625.84
2023-04-12T03:56:20.585Z,99607.28
2023-04-12T03:59:23.475Z,99610.78
2023-04-12T04:02:27.713Z,99608.31
2023-04-12T04:05:32.618Z,99600.88
2023-04-12T04:08:36.221Z,99599.38
2023-04-12T04:11:41.172Z,99592.84
2023-04-12T04:14:45.045Z,99586.19
2023-04-12T04:17:50.357Z,99596.91
2023-04-12T04:20:54.756Z,99596.53
2023-04-12T04:23:59.296Z,99595.34
2023-04-12T04:27:02.175Z,99594.00
2023-04-12T04:30:07.407Z,99580.53
2023-04-12T04:33:10.235Z,99586.44
2023-04-12T04:36:15.406Z,99595.78
2023-04-12T04:39:19.051Z,99597.87
2023-04-12T04:42:22.245Z,99606.00
2023-04-12T04:45:28.712Z,99607.38
2023-04-12T04:48:32.036Z,99606.06
2023-04-12T04:51:35.929Z,99605.78
2023-04-12T04:54:43.939Z,99604.16
2023-04-12T04:57:46.911Z,99594.75
2023-04-12T05:00:50.170Z,99591.06
2023-04-12T05:03:56.472Z,99595.59
2023-04-12T05:07:00.366Z,99598.28
2023-04-12T05:10:03.587Z,99601.69
2023-04-12T05:13:06.294Z,99603.03
2023-04-12T05:16:09.948Z,99596.19
2023-04-12T05:19:13.196Z,99592.13
2023-04-12T05:22:20.982Z,99590.34
2023-04-12T05:25:24.192Z,99587.06
2023-04-12T05:28:26.977Z,99595.91
2023-04-12T05:31:31.030Z,99584.03
2023-04-12T05:34:34.896Z,99582.03
2023-04-12T05:37:40.235Z,99576.53
2023-04-12T05:40:44.668Z,99577.03
2023-04-12T05:43:48.490Z,99589.37
2023-04-12T05:46:50.955Z,99597.69
2023-04-12T05:49:55.477Z,99593.16
2023-04-12T05:52:58.162Z,99599.81
2023-04-12T05:56:01.256Z,99599.81
2023-04-12T05:59:06.107Z,99602.91
2023-04-12T06:02:11.476Z,99614.41
2023-04-12T06:05:15.489Z,99626.53
2023-04-12T06:08:18.558Z,99641.69
2023-04-12T06:11:25.279Z,99644.59
2023-04-12T06:14:29.017Z,99644.50
2023-04-12T06:17:32.739Z,99650.09
2023-04-12T06:20:38.416Z,99641.41
2023-04-12T06:23:41.441Z,99634.91
2023-04-12T06:26:48.083Z,99647.22
2023-04-12T06:29:51.570Z,99645.03
2023-04-12T06:32:55.629Z,99659.28
2023-04-12T06:35:58.965Z,99646.81
2023-04-12T06:39:05.560Z,99655.72
2023-04-12T06:42:11.588Z,99645.63
2023-04-12T06:45:15.938Z,99649.91
2023-04-12T06:48:20.276Z,99648.97
2023-04-12T06:51:23.523Z,99643.75
2023-04-12T06:54:27.184Z,99638.59
2023-04-12T06:57:31.496Z,99649.69
2023-04-12T07:00:36.673Z,99657.63
2023-04-12T07:03:41.101Z,99676.25
2023-04-12T07:06:45.068Z,99658.84
2023-04-12T07:09:50.856Z,99643.03
2023-04-12T07:12:59.767Z,99661.34
2023-04-12T07:16:05.365Z,99667.88
2023-04-12T07:19:09.630Z,99666.13
2023-04-12T07:22:14.149Z,99654.84
2023-04-12T07:25:17.209Z,99666.66
2023-04-12T07:28:22.205Z,99658.78
2023-04-12T07:31:24.876Z,99652.00
2023-04-12T07:34:27.769Z,99660.38
2023-04-12T07:37:30.869Z,99650.03
2023-04-12T07:40:34.140Z,99642.97
2023-04-12T07:43:36.847Z,99640.91
2023-04-12T07:46:40.748Z,99632.63
2023-04-12T07:49:46.196Z,99639.00
2023-04-12T07:52:49.798Z,99643.78
2023-04-12T07:55:53.538Z,99646.19
2023-04-12T07:58:57.134Z,99645.94
2023-04-12T08:02:00.936Z,99647.31
2023-04-12T08:05:03.710Z,99642.06
2023-04-12T08:08:06.569Z,99645.97
2023-04-12T08:11:09.585Z,99641.50
2023-04-12T08:14:13.201Z,99644.53
2023-04-12T08:17:17.144Z,99646.47
2023-04-12T08:20:19.598Z,99631.72
2023-04-12T08:23:22.582Z,99644.69
2023-04-12T08:26:26.978Z,99653.09
2023-04-12T08:29:30.541Z,99641.19
2023-04-12T08:32:33.935Z,99647.12
2023-04-12T08:35:37.753Z,99654.16
2023-04-12T08:38:45.806Z,99645.09
2023-04-12T08:41:50.000Z,99648.09
2023-04-12T08:44:54.081Z,99637.81
2023-04-12T08:47:57.651Z,99632.22
2023-04-12T08:51:01.276Z,99631.25
2023-04-12T08:54:04.623Z,99627.59
2023-04-12T08:57:08.703Z,99630.53
2023-04-12T09:00:13.653Z,99628.03
2023-04-12T09:03:17.608Z,99630.13
2023-04-12T09:06:20.650Z,99626.56
2023-04-12T09:09:43.075Z,99628.69
2023-04-12T09:12:50.941Z,99621.16
2023-04-12T09:15:55.830Z,99615.19
2023-04-12T09:19:02.818Z,99619.44
2023-04-12T09:22:05.901Z,99622.09
2023-04-12T09:25:08.716Z,99623.16
2023-04-12T09:28:20.933Z,99613.47
2023-04-12T09:31:23.362Z,99611.47
2023-04-12T09:34:27.798Z,99601.69
2023-04-12T09:37:31.408Z,99598.44
2023-04-12T09:40:36.873Z,99595.81
2023-04-12T09:43:40.364Z,99598.59
2023-04-12T09:47:02.751Z,99594.03
2023-04-12T09:50:06.503Z,99582.00
2023-04-12T09:53:15.923Z,99587.28
2023-04-12T09:56:21.186Z,99588.22
2023-04-12T09:59:28.495Z,99589.72
2023-04-12T10:02:32.173Z,99579.28
2023-04-12T10:05:37.115Z,99584.47
2023-04-12T10:08:39.823Z,99579.09
2023-04-12T10:11:46.200Z,99587.19
2023-04-12T10:14:51.241Z,99584.09
2023-04-12T10:17:54.604Z,99579.66
2023-04-12T10:20:59.256Z,99574.25
2023-04-12T10:24:02.422Z,99578.66
2023-04-12T10:27:06.311Z,99578.97
2023-04-12T10:30:22.612Z,99570.22
2023-04-12T10:33:33.660Z,99575.75
2023-04-12T10:36:56.936Z,99574.03
2023-04-12T10:43:30.487Z,99560.03
2023-04-12T10:46:39.890Z,99554.91
2023-04-12T10:50:03.571Z,99554.16
2023-04-12T10:53:20.925Z,99545.28
2023-04-12T10:56:32.874Z,99546.69
2023-04-12T10:59:51.860Z,99548.03
2023-04-12T11:03:08.235Z,99546.66
2023-04-12T11:06:24.276Z,99548.69
2023-04-12T11:09:29.925Z,99536.50
2023-04-12T11:12:33.404Z,99534.78
2023-04-12T11:15:39.081Z,99543.66
2023-04-12T11:18:42.396Z,99538.66
2023-04-12T11:21:46.145Z,99528.53
2023-04-12T11:24:52.842Z,99532.75
2023-04-12T11:27:55.463Z,99526.06
2023-04-12T11:30:58.561Z,99525.22
2023-04-12T11:34:02.223Z,99521.28
2023-04-12T11:37:10.428Z,99522.94
2023-04-12T11:40:12.754Z,99525.09
2023-04-12T11:43:21.829Z,99522.47
2023-04-12T11:46:25.783Z,99515.56
2023-04-12T11:49:28.803Z,99510.97
2023-04-12T11:52:33.118Z,99521.34
2023-04-12T11:55:35.962Z,99515.53
2023-04-12T11:58:38.555Z,99509.12
2023-04-12T12:01:42.243Z,99507.50
2023-04-12T12:04:52.015Z,99503.88
2023-04-12T12:07:58.892Z,99489.91
2023-04-12T12:11:07.728Z,99491.37
2023-04-12T12:14:11.548Z,99487.78
2023-04-12T12:17:16.185Z,99490.41
2023-04-12T12:20:27.944Z,99472.66
2023-04-12T12:23:33.990Z,99477.72
2023-04-12T12:26:36.849Z,99475.31
2023-04-12T12:29:39.608Z,99474.94
2023-04-12T12:32:42.586Z,99466.97
2023-04-12T12:35:45.987Z,99472.25
2023-04-12T12:38:49.505Z,99454.69
2023-04-12T12:41:56.612Z,99457.84
2023-04-12T12:44:58.987Z,99454.19
2023-04-12T12:48:03.125Z,99449.72
2023-04-12T12:51:06.395Z,99447.09
2023-04-12T12:54:09.345Z,99448.03
2023-04-12T12:57:11.938Z,99446.56
2023-04-12T13:00:15.591Z,99440.88
2023-04-12T13:03:18.185Z,99449.44
2023-04-12T13:06:20.819Z,99442.06
2023-04-12T13:09:24.511Z,99440.56
2023-04-12T13:12:27.186Z,99431.97
2023-04-12T13:15:29.777Z,99438.75
2023-04-12T13:18:32.534Z,99434.94
2023-04-12T13:21:35.165Z,99439.22
2023-04-12T13:24:37.863Z,99433.66
2023-04-12T13:27:40.194Z,99422.97
2023-04-12T13:30:43.080Z,99421.47
2023-04-12T13:33:45.187Z,99425.66
2023-04-12T13:36:47.928Z,99423.25
2023-04-12T13:39:51.620Z,99414.22
2023-04-12T13:42:54.772Z,99413.03
2023-04-12T13:45:56.991Z,99416.34
2023-04-12T13:48:59.812Z,99404.66
2023-04-12T13:52:02.984Z,99408.41
2023-04-12T13:55:08.756Z,99409.00
2023-04-12T13:58:11.102Z,99411.03
2023-04-12T14:01:13.987Z,99406.91
2023-04-12T14:04:16.542Z,99402.34
2023-04-12T14:07:18.913Z,99403.06
2023-04-12T14:10:21.586Z,99401.69
2023-04-12T14:13:24.584Z,99401.53
2023-04-12T14:16:27.012Z,99403.50
2023-04-12T14:19:29.771Z,99403.19
2023-04-12T14:22:32.069Z,99388.25
2023-04-12T14:25:37.342Z,99390.53
2023-04-12T14:28:40.461Z,99388.88
2023-04-12T14:31:43.311Z,99384.94
2023-04-12T14:34:46.581Z,99388.53
2023-04-12T14:37:49.486Z,99389.22
2023-04-12T14:40:54.597Z,99387.25
2023-04-12T14:43:57.953Z,99399.28
2023-04-12T14:47:00.493Z,99390.87
2023-04-12T14:50:05.951Z,99381.66
2023-04-12T14:53:10.060Z,99378.63
2023-04-12T14:56:22.334Z,99388.00
2023-04-12T14:59:27.971Z,99381.13
2023-04-12T15:02:30.424Z,99379.62
2023-04-12T15:05:33.824Z,99381.13
2023-04-12T15:08:41.988Z,99387.84
2023-04-12T15:11:47.666Z,99385.38
2023-04-12T15:14:52.576Z,99385.75
2023-04-12T15:17:55.283Z,99382.31
2023-04-12T15:21:00.678Z,99389.38
2023-04-12T15:24:03.149Z,99387.69
2023-04-12T15:27:06.725Z,99387.94
2023-04-12T15:30:11.118Z,99383.66
2023-04-12T15:33:13.736Z,99378.06
2023-04-12T15:36:17.044Z,99388.12
2023-04-12T15:39:19.564Z,99390.25
2023-04-12T15:42:24.250Z,99385.16
2023-04-12T15:45:27.474Z,99389.75
2023-04-12T15:48:30.367Z,99391.09
2023-04-12T15:51:34.128Z,99394.88
2023-04-12T15:54:43.708Z,99376.31
2023-04-12T15:57:47.598Z,99381.41
2023-04-12T16:00:50.543Z,99382.72
2023-04-12T16:03:53.951Z,99391.59
2023-04-12T16:07:02.215Z,99385.81
2023-04-12T16:10:06.924Z,99381.72
2023-04-12T16:13:10.922Z,99377.06
2023-04-12T16:16:14.035Z,99378.22
2023-04-12T16:19:16.708Z,99379.81
2023-04-12T16:22:20.012Z,99377.03
2023-04-12T16:25:27.820Z,99365.84
2023-04-12T16:28:30.198Z,99359.34
2023-04-12T16:31:33.225Z,99358.69
2023-04-12T16:34:36.351Z,99364.31
2023-04-12T16:37:39.365Z,99355.22
2023-04-12T16:40:42.871Z,99359.44
2023-04-12T16:43:46.168Z,99348.13
2023-04-12T16:46:50.025Z,99351.41
2023-04-12T16:49:53.278Z,99354.38
2023-04-12T16:52:56.328Z,99347.66
2023-04-12T16:56:02.128Z,99353.31
2023-04-12T16:59:05.609Z,99357.28
2023-04-12T17:02:09.464Z,99357.69
2023-04-12T17:05:12.624Z,99362.50
2023-04-12T17:08:15.774Z,99351.41
2023-04-12T17:11:18.615Z,99350.56
2023-04-12T17:14:21.621Z,99351.91
2023-04-12T17:17:25.437Z,99356.84
2023-04-12T17:20:28.946Z,99353.06
2023-04-12T17:23:32.626Z,99351.88
2023-04-12T17:26:35.802Z,99350.69
2023-04-12T17:29:38.717Z,99358.03
2023-04-12T17:32:41.911Z,99362.47
2023-04-12T17:35:45.816Z,99360.19
2023-04-12T17:38:49.333Z,99352.53
2023-04-12T17:41:52.541Z,99343.59
2023-04-12T17:44:55.697Z,99337.72
2023-04-12T17:47:59.817Z,99337.44
2023-04-12T17:51:03.635Z,99342.81
2023-04-12T17:54:07.037Z,99344.72
2023-04-12T17:57:10.449Z,99350.97
2023-04-12T18:00:14.916Z,99352.91
2023-04-12T18:03:18.389Z,99348.50
2023-04-12T18:06:23.629Z,99342.97
2023-04-12T18:09:29.366Z,99355.75
2023-04-12T18:12:33.673Z,99354.47
2023-04-12T18:15:37.659Z,99360.59
2023-04-12T18:18:40.590Z,99348.25
2023-04-12T18:21:48.804Z,99346.56
2023-04-12T18:24:52.404Z,99339.72
2023-04-12T18:27:56.516Z,99343.25
2023-04-12T18:31:01.306Z,99345.53
2023-04-12T18:34:06.080Z,99354.00
2023-04-12T18:37:08.772Z,99352.19
2023-04-12T18:40:12.986Z,99349.25
2023-04-12T18:43:16.083Z,99346.63
2023-04-12T18:46:19.928Z,99350.81
2023-04-12T18:49:23.495Z,99355.72
2023-04-12T18:52:27.324Z,99359.75
2023-04-12T18:55:31.223Z,99361.25
2023-04-12T19:01:45.172Z,99370.75
2023-04-12T19:04:48.647Z,99368.63
2023-04-12T19:07:52.603Z,99368.22
2023-04-12T19:10:56.725Z,99366.28
2023-04-12T19:14:00.737Z,99365.53
2023-04-12T19:17:05.463Z,99366.47
2023-04-12T19:20:10.950Z,99362.75
2023-04-12T19:23:14.321Z,99366.09
2023-04-12T19:26:18.437Z,99369.28
2023-04-12T19:29:21.743Z,99368.13
2023-04-12T19:32:25.865Z,99370.03
2023-04-12T19:35:33.240Z,99371.19
2023-04-12T19:38:37.182Z,99365.44
2023-04-12T19:41:40.772Z,99366.84
2023-04-12T19:44:43.141Z,99362.25
2023-04-12T19:47:47.065Z,99366.41
2023-04-12T19:50:51.587Z,99371.16
2023-04-12T19:53:55.404Z,99369.06
2023-04-12T19:56:58.892Z,99363.38
2023-04-12T20:00:05.998Z,99363.72
2023-04-12T20:03:10.246Z,99352.75
2023-04-12T20:06:13.600Z,99352.53
2023-04-12T20:09:18.656Z,99346.63
2023-04-12T20:12:23.112Z,99347.78
2023-04-12T20:15:27.294Z,99348.03
2023-04-12T20:18:30.264Z,99353.34
2023-04-12T20:21:34.755Z,99344.84
2023-04-12T20:24:38.612Z,99340.97
2023-04-12T20:27:42.328Z,99338.69
2023-04-12T20:30:47.201Z,99337.16
2023-04-12T20:33:50.159Z,99337.50
2023-04-12T20:36:55.896Z,99348.88
2023-04-12T20:40:00.150Z,99347.47
2023-04-12T20:43:05.774Z,99353.47
2023-04-12T20:46:15.528Z,99348.03
2023-04-12T20:49:19.327Z,99340.81
2023-04-12T20:52:23.651Z,99327.47
2023-04-12T20:55:34.883Z,99324.38
2023-04-12T20:58:38.812Z,99326.75
2023-04-12T21:01:47.953Z,99329.00
2023-04-12T21:04:51.317Z,99319.44
2023-04-12T21:07:54.281Z,99313.28
2023-04-12T21:10:57.621Z,99308.56
2023-04-12T21:14:01.361Z,99308.06
2023-04-12T21:17:06.994Z,99307.97
2023-04-12T21:20:17.711Z,99308.81
2023-04-12T21:23:20.906Z,99320.97
2023-04-12T21:26:24.813Z,99316.50
2023-04-12T21:29:27.701Z,99323.56
2023-04-12T21:32:32.986Z,99325.69
2023-04-12T21:35:36.173Z,99313.66
2023-04-12T21:38:39.345Z,99314.00
2023-04-12T21:41:43.661Z,99313.31
2023-04-12T21:44:47.616Z,99318.59
2023-04-12T21:47:50.804Z,99305.38
2023-04-12T21:50:53.892Z,99298.88
2023-04-12T21:53:58.084Z,99294.75
2023-04-12T21:57:02.034Z,99292.63
2023-04-12T22:00:06.465Z,99285.75
2023-04-12T22:03:12.028Z,99288.81
2023-04-12T22:06:17.212Z,99283.87
2023-04-12T22:09:20.918Z,99277.72
2023-04-12T22:12:26.094Z,99277.37
2023-04-12T22:15:29.068Z,99272.19
2023-04-12T22:18:34.233Z,99272.19
2023-04-12T22:21:38.100Z,99272.19
2023-04-12T22:24:41.131Z,99276.66
2023-04-12T22:27:46.972Z,99273.34
2023-04-12T22:30:50.382Z,99266.50
2023-04-12T22:33:55.366Z,99271.47
2023-04-12T22:37:02.191Z,99265.56
2023-04-12T22:40:07.232Z,99268.41
2023-04-12T22:43:18.617Z,99263.09
2023-04-12T22:46:21.841Z,99257.44
2023-04-12T22:49:31.747Z,99260.75
2023-04-12T22:52:38.750Z,99264.75
2023-04-12T22:55:42.783Z,99262.63
2023-04-12T22:58:47.089Z,99268.78
2023-04-12T23:01:51.197Z,99268.91
2023-04-12T23:04:54.532Z,99269.03
2023-04-12T23:07:58.017Z,99262.53
2023-04-12T23:11:05.099Z,99265.25
2023-04-12T23:14:08.895Z,99265.72
2023-04-12T23:17:12.001Z,99266.50
2023-04-12T23:20:15.811Z,99258.25
2023-04-12T23:23:19.288Z,99255.88
2023-04-12T23:26:22.794Z,99253.03
2023-04-12T23:29:26.318Z,99255.13
2023-04-12T23:32:29.940Z,99249.47
2023-04-12T23:35:33.613Z,99249.31
2023-04-12T23:38:39.595Z,99248.47
2023-04-12T23:41:44.401Z,99240.41
2023-04-12T23:44:47.922Z,99240.84
2023-04-12T23:47:51.150Z,99237.31
2023-04-12T23:50:54.349Z,99233.91
2023-04-12T23:53:57.973Z,99229.28
2023-04-12T23:57:02.018Z,99228.44
